sensor_id;sensor_type;location;lat;lon;timestamp;pressure;altitude;pressure_sealevel;temperature
64960;BMP180;51487;52.266;10.542;2023-07-13T00:00:35;100429.00;;;18.80
64960;BMP180;51487;52.266;10.542;2023-07-13T00:03:02;100420.00;;;18.80
64960;BMP180;51487;52.266;10.542;2023-07-13T00:05:28;100426.00;;;18.70
64960;BMP180;51487;52.266;10.542;2023-07-13T00:07:53;100433.00;;;18.60
64960;BMP180;51487;52.266;10.542;2023-07-13T00:10:20;100438.00;;;18.50
64960;BMP180;51487;52.266;10.542;2023-07-13T00:12:46;100449.00;;;18.50
64960;BMP180;51487;52.266;10.542;2023-07-13T00:15:19;100445.00;;;18.50
64960;BMP180;51487;52.266;10.542;2023-07-13T00:17:55;100445.00;;;18.50
64960;BMP180;51487;52.266;10.542;2023-07-13T00:20:23;100448.00;;;18.50
64960;BMP180;51487;52.266;10.542;2023-07-13T00:22:53;100441.00;;;18.50
64960;BMP180;51487;52.266;10.542;2023-07-13T00:25:20;100447.00;;;18.50
64960;BMP180;51487;52.266;10.542;2023-07-13T00:27:47;100451.00;;;18.50
64960;BMP180;51487;52.266;10.542;2023-07-13T00:30:14;100450.00;;;18.40
64960;BMP180;51487;52.266;10.542;2023-07-13T00:32:40;100443.00;;;18.30
64960;BMP180;51487;52.266;10.542;2023-07-13T00:35:06;100447.00;;;18.20
64960;BMP180;51487;52.266;10.542;2023-07-13T00:37:33;100447.00;;;18.30
64960;BMP180;51487;52.266;10.542;2023-07-13T00:40:01;100445.00;;;18.30
64960;BMP180;51487;52.266;10.542;2023-07-13T00:42:31;100445.00;;;18.10
64960;BMP180;51487;52.266;10.542;2023-07-13T00:45:07;100444.00;;;18.10
64960;BMP180;51487;52.266;10.542;2023-07-13T00:47:33;100446.00;;;18.10
64960;BMP180;51487;52.266;10.542;2023-07-13T00:49:59;100451.00;;;18.10
64960;BMP180;51487;52.266;10.542;2023-07-13T00:52:25;100465.00;;;18.00
64960;BMP180;51487;52.266;10.542;2023-07-13T00:54:53;100469.00;;;18.00
64960;BMP180;51487;52.266;10.542;2023-07-13T00:57:20;100459.00;;;18.00
64960;BMP180;51487;52.266;10.542;2023-07-13T00:59:50;100455.00;;;18.00
64960;BMP180;51487;52.266;10.542;2023-07-13T01:02:18;100461.00;;;18.00
64960;BMP180;51487;52.266;10.542;2023-07-13T01:04:46;100455.00;;;18.10
64960;BMP180;51487;52.266;10.542;2023-07-13T01:07:13;100451.00;;;18.00
64960;BMP180;51487;52.266;10.542;2023-07-13T01:09:39;100452.00;;;17.90
64960;BMP180;51487;52.266;10.542;2023-07-13T01:12:05;100451.00;;;18.00
64960;BMP180;51487;52.266;10.542;2023-07-13T01:14:31;100453.00;;;18.00
64960;BMP180;51487;52.266;10.542;2023-07-13T01:16:57;100452.00;;;18.00
64960;BMP180;51487;52.266;10.542;2023-07-13T01:19:38;100449.00;;;18.00
64960;BMP180;51487;52.266;10.542;2023-07-13T01:22:09;100444.00;;;18.00
64960;BMP180;51487;52.266;10.542;2023-07-13T01:24:41;100447.00;;;18.00
64960;BMP180;51487;52.266;10.542;2023-07-13T01:27:09;100452.00;;;18.10
64960;BMP180;51487;52.266;10.542;2023-07-13T01:29:38;100450.00;;;18.00
64960;BMP180;51487;52.266;10.542;2023-07-13T01:32:11;100446.00;;;18.00
64960;BMP180;51487;52.266;10.542;2023-07-13T01:34:39;100445.00;;;18.00
64960;BMP180;51487;52.266;10.542;2023-07-13T01:37:11;100441.00;;;18.00
64960;BMP180;51487;52.266;10.542;2023-07-13T01:39:37;100448.00;;;17.90
64960;BMP180;51487;52.266;10.542;2023-07-13T01:42:03;100449.00;;;17.90
64960;BMP180;51487;52.266;10.542;2023-07-13T01:44:29;100448.00;;;17.90
64960;BMP180;51487;52.266;10.542;2023-07-13T01:46:56;100445.00;;;17.80
64960;BMP180;51487;52.266;10.542;2023-07-13T01:49:21;100454.00;;;17.70
64960;BMP180;51487;52.266;10.542;2023-07-13T01:51:47;100444.00;;;17.70
64960;BMP180;51487;52.266;10.542;2023-07-13T01:54:12;100446.00;;;17.70
64960;BMP180;51487;52.266;10.542;2023-07-13T01:56:38;100445.00;;;17.70
64960;BMP180;51487;52.266;10.542;2023-07-13T01:59:05;100454.00;;;17.60
64960;BMP180;51487;52.266;10.542;2023-07-13T02:01:30;100450.00;;;17.60
64960;BMP180;51487;52.266;10.542;2023-07-13T02:03:56;100451.00;;;17.60
64960;BMP180;51487;52.266;10.542;2023-07-13T02:06:21;100460.00;;;17.50
64960;BMP180;51487;52.266;10.542;2023-07-13T02:08:47;100453.00;;;17.50
64960;BMP180;51487;52.266;10.542;2023-07-13T02:11:12;100453.00;;;17.50
64960;BMP180;51487;52.266;10.542;2023-07-13T02:13:38;100458.00;;;17.40
64960;BMP180;51487;52.266;10.542;2023-07-13T02:16:04;100460.00;;;17.40
64960;BMP180;51487;52.266;10.542;2023-07-13T02:18:29;100464.00;;;17.40
64960;BMP180;51487;52.266;10.542;2023-07-13T02:20:55;100459.00;;;17.40
64960;BMP180;51487;52.266;10.542;2023-07-13T02:23:20;100453.00;;;17.30
64960;BMP180;51487;52.266;10.542;2023-07-13T02:25:46;100463.00;;;17.20
64960;BMP180;51487;52.266;10.542;2023-07-13T02:28:12;100461.00;;;17.10
64960;BMP180;51487;52.266;10.542;2023-07-13T02:30:37;100469.00;;;17.10
64960;BMP180;51487;52.266;10.542;2023-07-13T02:33:04;100470.00;;;17.10
64960;BMP180;51487;52.266;10.542;2023-07-13T02:35:30;100477.00;;;17.10
64960;BMP180;51487;52.266;10.542;2023-07-13T02:37:56;100467.00;;;17.10
64960;BMP180;51487;52.266;10.542;2023-07-13T02:40:22;100476.00;;;17.10
64960;BMP180;51487;52.266;10.542;2023-07-13T02:42:48;100470.00;;;17.20
64960;BMP180;51487;52.266;10.542;2023-07-13T02:45:13;100460.00;;;17.20
64960;BMP180;51487;52.266;10.542;2023-07-13T02:47:40;100447.00;;;17.20
64960;BMP180;51487;52.266;10.542;2023-07-13T02:50:07;100450.00;;;17.40
64960;BMP180;51487;52.266;10.542;2023-07-13T02:52:33;100447.00;;;17.40
64960;BMP180;51487;52.266;10.542;2023-07-13T02:54:59;100448.00;;;17.40
64960;BMP180;51487;52.266;10.542;2023-07-13T02:57:24;100444.00;;;17.40
64960;BMP180;51487;52.266;10.542;2023-07-13T02:59:50;100449.00;;;17.30
64960;BMP180;51487;52.266;10.542;2023-07-13T03:02:16;100438.00;;;17.30
64960;BMP180;51487;52.266;10.542;2023-07-13T03:04:41;100435.00;;;17.20
64960;BMP180;51487;52.266;10.542;2023-07-13T03:07:07;100437.00;;;17.30
64960;BMP180;51487;52.266;10.542;2023-07-13T03:09:34;100440.00;;;17.30
64960;BMP180;51487;52.266;10.542;2023-07-13T03:12:00;100432.00;;;17.30
64960;BMP180;51487;52.266;10.542;2023-07-13T03:14:26;100433.00;;;17.20
64960;BMP180;51487;52.266;10.542;2023-07-13T03:16:52;100433.00;;;17.20
64960;BMP180;51487;52.266;10.542;2023-07-13T03:19:18;100431.00;;;17.10
64960;BMP180;51487;52.266;10.542;2023-07-13T03:21:44;100431.00;;;17.00
64960;BMP180;51487;52.266;10.542;2023-07-13T03:24:10;100425.00;;;17.00
64960;BMP180;51487;52.266;10.542;2023-07-13T03:26:36;100426.00;;;17.00
64960;BMP180;51487;52.266;10.542;2023-07-13T03:29:02;100430.00;;;17.00
64960;BMP180;51487;52.266;10.542;2023-07-13T03:31:32;100434.00;;;17.00
64960;BMP180;51487;52.266;10.542;2023-07-13T03:33:59;100432.00;;;17.00
64960;BMP180;51487;52.266;10.542;2023-07-13T03:36:27;100439.00;;;17.00
64960;BMP180;51487;52.266;10.542;2023-07-13T03:38:56;100447.00;;;17.00
64960;BMP180;51487;52.266;10.542;2023-07-13T03:41:24;100442.00;;;17.10
64960;BMP180;51487;52.266;10.542;2023-07-13T03:43:50;100459.00;;;17.00
64960;BMP180;51487;52.266;10.542;2023-07-13T03:46:17;100454.00;;;17.00
64960;BMP180;51487;52.266;10.542;2023-07-13T03:48:45;100457.00;;;17.10
64960;BMP180;51487;52.266;10.542;2023-07-13T03:51:13;100462.00;;;17.10
64960;BMP180;51487;52.266;10.542;2023-07-13T03:53:43;100468.00;;;17.10
64960;BMP180;51487;52.266;10.542;2023-07-13T03:56:10;100468.00;;;17.10
64960;BMP180;51487;52.266;10.542;2023-07-13T03:58:40;100472.00;;;17.10
64960;BMP180;51487;52.266;10.542;2023-07-13T04:01:09;100476.00;;;17.00
64960;BMP180;51487;52.266;10.542;2023-07-13T04:03:35;100469.00;;;17.00
64960;BMP180;51487;52.266;10.542;2023-07-13T04:06:04;100469.00;;;17.10
64960;BMP180;51487;52.266;10.542;2023-07-13T04:08:34;100475.00;;;17.10
64960;BMP180;51487;52.266;10.542;2023-07-13T04:11:02;100473.00;;;17.00
64960;BMP180;51487;52.266;10.542;2023-07-13T04:13:29;100473.00;;;17.00
64960;BMP180;51487;52.266;10.542;2023-07-13T04:15:55;100476.00;;;17.10
64960;BMP180;51487;52.266;10.542;2023-07-13T04:18:21;100476.00;;;17.10
64960;BMP180;51487;52.266;10.542;2023-07-13T04:20:48;100479.00;;;17.20
64960;BMP180;51487;52.266;10.542;2023-07-13T04:23:15;100476.00;;;17.20
64960;BMP180;51487;52.266;10.542;2023-07-13T04:25:48;100479.00;;;17.20
64960;BMP180;51487;52.266;10.542;2023-07-13T04:28:15;100480.00;;;17.20
64960;BMP180;51487;52.266;10.542;2023-07-13T04:30:43;100497.00;;;17.30
64960;BMP180;51487;52.266;10.542;2023-07-13T04:33:09;100497.00;;;17.30
64960;BMP180;51487;52.266;10.542;2023-07-13T04:35:35;100497.00;;;17.30
64960;BMP180;51487;52.266;10.542;2023-07-13T04:38:01;100495.00;;;17.40
64960;BMP180;51487;52.266;10.542;2023-07-13T04:40:28;100495.00;;;17.40
64960;BMP180;51487;52.266;10.542;2023-07-13T04:42:54;100497.00;;;17.50
64960;BMP180;51487;52.266;10.542;2023-07-13T04:45:21;100501.00;;;17.50
64960;BMP180;51487;52.266;10.542;2023-07-13T04:47:49;100498.00;;;17.50
64960;BMP180;51487;52.266;10.542;2023-07-13T04:50:15;100509.00;;;17.50
64960;BMP180;51487;52.266;10.542;2023-07-13T04:52:45;100502.00;;;17.60
64960;BMP180;51487;52.266;10.542;2023-07-13T04:55:11;100512.00;;;17.70
64960;BMP180;51487;52.266;10.542;2023-07-13T04:57:36;100508.00;;;17.90
64960;BMP180;51487;52.266;10.542;2023-07-13T05:00:03;100519.00;;;17.90
64960;BMP180;51487;52.266;10.542;2023-07-13T05:02:31;100514.00;;;17.90
64960;BMP180;51487;52.266;10.542;2023-07-13T05:04:57;100517.00;;;18.10
64960;BMP180;51487;52.266;10.542;2023-07-13T05:07:23;100513.00;;;18.10
64960;BMP180;51487;52.266;10.542;2023-07-13T05:09:48;100518.00;;;18.20
64960;BMP180;51487;52.266;10.542;2023-07-13T05:12:14;100520.00;;;18.30
64960;BMP180;51487;52.266;10.542;2023-07-13T05:14:40;100523.00;;;18.20
64960;BMP180;51487;52.266;10.542;2023-07-13T05:17:05;100515.00;;;18.20
64960;BMP180;51487;52.266;10.542;2023-07-13T05:19:31;100526.00;;;18.20
64960;BMP180;51487;52.266;10.542;2023-07-13T05:21:57;100532.00;;;18.20
64960;BMP180;51487;52.266;10.542;2023-07-13T05:24:23;100531.00;;;18.20
64960;BMP180;51487;52.266;10.542;2023-07-13T05:26:49;100526.00;;;18.20
64960;BMP180;51487;52.266;10.542;2023-07-13T05:29:15;100528.00;;;18.10
64960;BMP180;51487;52.266;10.542;2023-07-13T05:31:40;100533.00;;;18.10
64960;BMP180;51487;52.266;10.542;2023-07-13T05:34:05;100525.00;;;18.20
64960;BMP180;51487;52.266;10.542;2023-07-13T05:36:31;100530.00;;;18.20
64960;BMP180;51487;52.266;10.542;2023-07-13T05:38:56;100530.00;;;18.40
64960;BMP180;51487;52.266;10.542;2023-07-13T05:41:23;100530.00;;;18.60
64960;BMP180;51487;52.266;10.542;2023-07-13T05:43:49;100525.00;;;18.70
64960;BMP180;51487;52.266;10.542;2023-07-13T05:46:14;100529.00;;;18.70
64960;BMP180;51487;52.266;10.542;2023-07-13T05:48:40;100532.00;;;18.80
64960;BMP180;51487;52.266;10.542;2023-07-13T05:51:06;100536.00;;;18.60
64960;BMP180;51487;52.266;10.542;2023-07-13T05:53:32;100539.00;;;18.80
64960;BMP180;51487;52.266;10.542;2023-07-13T05:55:57;100535.00;;;18.90
64960;BMP180;51487;52.266;10.542;2023-07-13T05:58:23;100539.00;;;19.00
64960;BMP180;51487;52.266;10.542;2023-07-13T06:00:48;100536.00;;;19.10
64960;BMP180;51487;52.266;10.542;2023-07-13T06:03:23;100532.00;;;19.20
64960;BMP180;51487;52.266;10.542;2023-07-13T06:05:48;100534.00;;;19.40
64960;BMP180;51487;52.266;10.542;2023-07-13T06:08:14;100530.00;;;19.30
64960;BMP180;51487;52.266;10.542;2023-07-13T06:10:39;100537.00;;;19.50
64960;BMP180;51487;52.266;10.542;2023-07-13T06:13:04;100540.00;;;19.50
64960;BMP180;51487;52.266;10.542;2023-07-13T06:15:30;100541.00;;;19.50
64960;BMP180;51487;52.266;10.542;2023-07-13T06:17:55;100545.00;;;19.40
64960;BMP180;51487;52.266;10.542;2023-07-13T06:20:21;100546.00;;;19.40
64960;BMP180;51487;52.266;10.542;2023-07-13T06:22:46;100547.00;;;19.20
64960;BMP180;51487;52.266;10.542;2023-07-13T06:25:12;100559.00;;;19.10
64960;BMP180;51487;52.266;10.542;2023-07-13T06:27:38;100553.00;;;19.10
64960;BMP180;51487;52.266;10.542;2023-07-13T06:30:03;100556.00;;;19.00
64960;BMP180;51487;52.266;10.542;2023-07-13T06:32:29;100554.00;;;19.10
64960;BMP180;51487;52.266;10.542;2023-07-13T06:34:55;100553.00;;;19.00
64960;BMP180;51487;52.266;10.542;2023-07-13T06:37:20;100558.00;;;18.90
64960;BMP180;51487;52.266;10.542;2023-07-13T06:39:46;100562.00;;;19.80
64960;BMP180;51487;52.266;10.542;2023-07-13T06:42:11;100562.00;;;20.50
64960;BMP180;51487;52.266;10.542;2023-07-13T06:44:37;100557.00;;;21.10
64960;BMP180;51487;52.266;10.542;2023-07-13T06:47:03;100558.00;;;21.50
64960;BMP180;51487;52.266;10.542;2023-07-13T06:49:28;100554.00;;;21.70
64960;BMP180;51487;52.266;10.542;2023-07-13T06:51:54;100557.00;;;22.10
64960;BMP180;51487;52.266;10.542;2023-07-13T06:54:19;100561.00;;;22.40
64960;BMP180;51487;52.266;10.542;2023-07-13T06:56:45;100570.00;;;22.20
64960;BMP180;51487;52.266;10.542;2023-07-13T06:59:11;100563.00;;;22.40
64960;BMP180;51487;52.266;10.542;2023-07-13T07:01:36;100573.00;;;22.50
64960;BMP180;51487;52.266;10.542;2023-07-13T07:04:03;100564.00;;;22.40
64960;BMP180;51487;52.266;10.542;2023-07-13T07:06:28;100567.00;;;22.90
64960;BMP180;51487;52.266;10.542;2023-07-13T07:08:54;100569.00;;;22.70
64960;BMP180;51487;52.266;10.542;2023-07-13T07:11:23;100564.00;;;22.60
64960;BMP180;51487;52.266;10.542;2023-07-13T07:13:51;100559.00;;;22.40
64960;BMP180;51487;52.266;10.542;2023-07-13T07:16:18;100560.00;;;21.60
64960;BMP180;51487;52.266;10.542;2023-07-13T07:18:45;100561.00;;;21.00
64960;BMP180;51487;52.266;10.542;2023-07-13T07:21:12;100561.00;;;20.70
64960;BMP180;51487;52.266;10.542;2023-07-13T07:23:37;100567.00;;;20.40
64960;BMP180;51487;52.266;10.542;2023-07-13T07:26:03;100567.00;;;20.10
64960;BMP180;51487;52.266;10.542;2023-07-13T07:28:29;100561.00;;;20.00
64960;BMP180;51487;52.266;10.542;2023-07-13T07:30:56;100558.00;;;19.70
64960;BMP180;51487;52.266;10.542;2023-07-13T07:33:24;100560.00;;;19.90
64960;BMP180;51487;52.266;10.542;2023-07-13T07:35:51;100564.00;;;20.00
64960;BMP180;51487;52.266;10.542;2023-07-13T07:38:17;100557.00;;;20.20
64960;BMP180;51487;52.266;10.542;2023-07-13T07:40:45;100565.00;;;20.20
64960;BMP180;51487;52.266;10.542;2023-07-13T07:43:11;100566.00;;;20.20
64960;BMP180;51487;52.266;10.542;2023-07-13T07:45:39;100559.00;;;20.30
64960;BMP180;51487;52.266;10.542;2023-07-13T07:48:05;100559.00;;;20.40
64960;BMP180;51487;52.266;10.542;2023-07-13T07:50:31;100562.00;;;20.80
64960;BMP180;51487;52.266;10.542;2023-07-13T07:52:57;100558.00;;;20.80
64960;BMP180;51487;52.266;10.542;2023-07-13T07:55:24;100562.00;;;20.90
64960;BMP180;51487;52.266;10.542;2023-07-13T07:57:53;100557.00;;;20.80
64960;BMP180;51487;52.266;10.542;2023-07-13T08:00:19;100554.00;;;20.90
64960;BMP180;51487;52.266;10.542;2023-07-13T08:02:45;100563.00;;;20.90
64960;BMP180;51487;52.266;10.542;2023-07-13T08:05:10;100559.00;;;20.80
64960;BMP180;51487;52.266;10.542;2023-07-13T08:07:37;100563.00;;;20.70
64960;BMP180;51487;52.266;10.542;2023-07-13T08:10:05;100578.00;;;20.50
64960;BMP180;51487;52.266;10.542;2023-07-13T08:12:36;100586.00;;;20.40
64960;BMP180;51487;52.266;10.542;2023-07-13T08:15:03;100574.00;;;20.40
64960;BMP180;51487;52.266;10.542;2023-07-13T08:17:29;100575.00;;;20.30
64960;BMP180;51487;52.266;10.542;2023-07-13T08:19:55;100590.00;;;20.30
64960;BMP180;51487;52.266;10.542;2023-07-13T08:22:20;100575.00;;;20.10
64960;BMP180;51487;52.266;10.542;2023-07-13T08:24:46;100580.00;;;20.10
64960;BMP180;51487;52.266;10.542;2023-07-13T08:27:12;100592.00;;;20.80
64960;BMP180;51487;52.266;10.542;2023-07-13T08:29:39;100589.00;;;21.00
64960;BMP180;51487;52.266;10.542;2023-07-13T08:32:06;100597.00;;;21.20
64960;BMP180;51487;52.266;10.542;2023-07-13T08:34:36;100607.00;;;21.60
64960;BMP180;51487;52.266;10.542;2023-07-13T08:37:02;100601.00;;;20.80
64960;BMP180;51487;52.266;10.542;2023-07-13T08:39:29;100596.00;;;21.00
64960;BMP180;51487;52.266;10.542;2023-07-13T08:42:00;100595.00;;;21.10
64960;BMP180;51487;52.266;10.542;2023-07-13T08:47:28;100610.00;;;21.50
64960;BMP180;51487;52.266;10.542;2023-07-13T08:49:56;100599.00;;;21.30
64960;BMP180;51487;52.266;10.542;2023-07-13T08:52:33;100602.00;;;21.40
64960;BMP180;51487;52.266;10.542;2023-07-13T08:55:13;100608.00;;;21.50
64960;BMP180;51487;52.266;10.542;2023-07-13T08:57:42;100605.00;;;21.70
64960;BMP180;51487;52.266;10.542;2023-07-13T09:00:11;100594.00;;;21.80
64960;BMP180;51487;52.266;10.542;2023-07-13T09:02:46;100604.00;;;21.70
64960;BMP180;51487;52.266;10.542;2023-07-13T09:08:26;100624.00;;;21.40
64960;BMP180;51487;52.266;10.542;2023-07-13T09:11:17;100612.00;;;21.20
64960;BMP180;51487;52.266;10.542;2023-07-13T09:16:42;100604.00;;;20.70
64960;BMP180;51487;52.266;10.542;2023-07-13T09:19:23;100614.00;;;20.70
64960;BMP180;51487;52.266;10.542;2023-07-13T09:21:55;100614.00;;;20.90
64960;BMP180;51487;52.266;10.542;2023-07-13T09:27:31;100619.00;;;20.60
64960;BMP180;51487;52.266;10.542;2023-07-13T09:32:43;100613.00;;;20.50
64960;BMP180;51487;52.266;10.542;2023-07-13T09:35:19;100607.00;;;20.60
64960;BMP180;51487;52.266;10.542;2023-07-13T09:37:47;100612.00;;;20.80
64960;BMP180;51487;52.266;10.542;2023-07-13T09:43:14;100628.00;;;20.90
64960;BMP180;51487;52.266;10.542;2023-07-13T09:45:45;100614.00;;;20.90
64960;BMP180;51487;52.266;10.542;2023-07-13T09:48:14;100613.00;;;21.00
64960;BMP180;51487;52.266;10.542;2023-07-13T09:50:42;100624.00;;;20.90
64960;BMP180;51487;52.266;10.542;2023-07-13T09:53:17;100616.00;;;20.90
64960;BMP180;51487;52.266;10.542;2023-07-13T09:55:46;100616.00;;;21.10
64960;BMP180;51487;52.266;10.542;2023-07-13T09:58:18;100625.00;;;21.10
64960;BMP180;51487;52.266;10.542;2023-07-13T10:03:33;100605.00;;;21.10
64960;BMP180;51487;52.266;10.542;2023-07-13T10:06:15;100607.00;;;21.10
64960;BMP180;51487;52.266;10.542;2023-07-13T10:08:45;100606.00;;;21.20
64960;BMP180;51487;52.266;10.542;2023-07-13T10:11:18;100619.00;;;21.40
64960;BMP180;51487;52.266;10.542;2023-07-13T10:13:52;100603.00;;;21.50
64960;BMP180;51487;52.266;10.542;2023-07-13T10:16:28;100609.00;;;21.90
64960;BMP180;51487;52.266;10.542;2023-07-13T10:19:00;100615.00;;;22.00
64960;BMP180;51487;52.266;10.542;2023-07-13T10:21:39;100610.00;;;21.80
64960;BMP180;51487;52.266;10.542;2023-07-13T10:26:58;100617.00;;;21.40
64960;BMP180;51487;52.266;10.542;2023-07-13T10:29:34;100615.00;;;21.30
64960;BMP180;51487;52.266;10.542;2023-07-13T10:32:09;100623.00;;;21.30
64960;BMP180;51487;52.266;10.542;2023-07-13T10:34:37;100612.00;;;21.40
64960;BMP180;51487;52.266;10.542;2023-07-13T10:37:07;100625.00;;;21.40
64960;BMP180;51487;52.266;10.542;2023-07-13T10:39:44;100625.00;;;21.40
64960;BMP180;51487;52.266;10.542;2023-07-13T10:42:15;100617.00;;;21.30
64960;BMP180;51487;52.266;10.542;2023-07-13T10:44:49;100624.00;;;21.40
64960;BMP180;51487;52.266;10.542;2023-07-13T10:47:16;100618.00;;;21.40
64960;BMP180;51487;52.266;10.542;2023-07-13T10:49:46;100611.00;;;21.60
64960;BMP180;51487;52.266;10.542;2023-07-13T10:52:55;100618.00;;;21.90
64960;BMP180;51487;52.266;10.542;2023-07-13T11:03:55;100604.00;;;22.40
64960;BMP180;51487;52.266;10.542;2023-07-13T11:08:56;100608.00;;;22.50
64960;BMP180;51487;52.266;10.542;2023-07-13T11:18:45;100605.00;;;22.60
64960;BMP180;51487;52.266;10.542;2023-07-13T11:21:25;100609.00;;;22.60
64960;BMP180;51487;52.266;10.542;2023-07-13T11:23:54;100619.00;;;22.60
64960;BMP180;51487;52.266;10.542;2023-07-13T11:26:50;100603.00;;;22.50
64960;BMP180;51487;52.266;10.542;2023-07-13T11:31:49;100611.00;;;22.70
64960;BMP180;51487;52.266;10.542;2023-07-13T11:34:24;100613.00;;;22.60
64960;BMP180;51487;52.266;10.542;2023-07-13T11:36:53;100604.00;;;22.60
64960;BMP180;51487;52.266;10.542;2023-07-13T11:39:37;100599.00;;;22.80
64960;BMP180;51487;52.266;10.542;2023-07-13T11:42:12;100607.00;;;22.90
64960;BMP180;51487;52.266;10.542;2023-07-13T11:44:48;100600.00;;;22.70
64960;BMP180;51487;52.266;10.542;2023-07-13T11:47:21;100609.00;;;22.60
64960;BMP180;51487;52.266;10.542;2023-07-13T11:49:53;100625.00;;;22.60
64960;BMP180;51487;52.266;10.542;2023-07-13T11:52:35;100608.00;;;22.60
64960;BMP180;51487;52.266;10.542;2023-07-13T11:55:05;100623.00;;;22.70
64960;BMP180;51487;52.266;10.542;2023-07-13T11:57:45;100618.00;;;22.70
64960;BMP180;51487;52.266;10.542;2023-07-13T12:00:18;100610.00;;;22.80
64960;BMP180;51487;52.266;10.542;2023-07-13T12:02:55;100613.00;;;22.70
64960;BMP180;51487;52.266;10.542;2023-07-13T12:05:24;100600.00;;;22.70
64960;BMP180;51487;52.266;10.542;2023-07-13T12:07:50;100591.00;;;22.70
64960;BMP180;51487;52.266;10.542;2023-07-13T12:10:25;100583.00;;;22.90
64960;BMP180;51487;52.266;10.542;2023-07-13T12:13:01;100599.00;;;23.10
64960;BMP180;51487;52.266;10.542;2023-07-13T12:15:40;100611.00;;;23.00
64960;BMP180;51487;52.266;10.542;2023-07-13T12:18:15;100598.00;;;22.80
64960;BMP180;51487;52.266;10.542;2023-07-13T12:20:47;100583.00;;;23.00
64960;BMP180;51487;52.266;10.542;2023-07-13T12:23:24;100587.00;;;23.10
64960;BMP180;51487;52.266;10.542;2023-07-13T12:25:59;100587.00;;;23.30
64960;BMP180;51487;52.266;10.542;2023-07-13T12:28:34;100591.00;;;23.50
64960;BMP180;51487;52.266;10.542;2023-07-13T12:31:04;100589.00;;;23.60
64960;BMP180;51487;52.266;10.542;2023-07-13T12:33:33;100597.00;;;23.60
64960;BMP180;51487;52.266;10.542;2023-07-13T12:36:05;100599.00;;;23.60
64960;BMP180;51487;52.266;10.542;2023-07-13T12:38:32;100603.00;;;23.70
64960;BMP180;51487;52.266;10.542;2023-07-13T12:40:58;100611.00;;;23.80
64960;BMP180;51487;52.266;10.542;2023-07-13T12:43:25;100606.00;;;23.50
64960;BMP180;51487;52.266;10.542;2023-07-13T12:46:01;100612.00;;;23.40
64960;BMP180;51487;52.266;10.542;2023-07-13T12:48:28;100605.00;;;23.40
64960;BMP180;51487;52.266;10.542;2023-07-13T12:50:55;100600.00;;;23.40
64960;BMP180;51487;52.266;10.542;2023-07-13T12:53:30;100605.00;;;23.40
64960;BMP180;51487;52.266;10.542;2023-07-13T12:56:05;100607.00;;;23.50
64960;BMP180;51487;52.266;10.542;2023-07-13T12:58:40;100603.00;;;23.50
64960;BMP180;51487;52.266;10.542;2023-07-13T13:01:10;100595.00;;;23.50
64960;BMP180;51487;52.266;10.542;2023-07-13T13:03:45;100599.00;;;23.30
64960;BMP180;51487;52.266;10.542;2023-07-13T13:08:40;100601.00;;;23.20
64960;BMP180;51487;52.266;10.542;2023-07-13T13:11:08;100592.00;;;23.50
64960;BMP180;51487;52.266;10.542;2023-07-13T13:13:34;100599.00;;;23.40
64960;BMP180;51487;52.266;10.542;2023-07-13T13:16:19;100593.00;;;23.40
64960;BMP180;51487;52.266;10.542;2023-07-13T13:18:45;100604.00;;;23.20
64960;BMP180;51487;52.266;10.542;2023-07-13T13:21:11;100605.00;;;23.20
64960;BMP180;51487;52.266;10.542;2023-07-13T13:23:37;100589.00;;;23.30
64960;BMP180;51487;52.266;10.542;2023-07-13T13:26:03;100595.00;;;23.30
64960;BMP180;51487;52.266;10.542;2023-07-13T13:28:34;100580.00;;;23.20
64960;BMP180;51487;52.266;10.542;2023-07-13T13:30:59;100580.00;;;23.40
64960;BMP180;51487;52.266;10.542;2023-07-13T13:33:25;100592.00;;;23.50
64960;BMP180;51487;52.266;10.542;2023-07-13T13:35:51;100602.00;;;23.50
64960;BMP180;51487;52.266;10.542;2023-07-13T13:38:19;100600.00;;;23.50
64960;BMP180;51487;52.266;10.542;2023-07-13T13:40:52;100594.00;;;23.60
64960;BMP180;51487;52.266;10.542;2023-07-13T13:43:21;100588.00;;;23.60
64960;BMP180;51487;52.266;10.542;2023-07-13T13:45:52;100589.00;;;23.60
64960;BMP180;51487;52.266;10.542;2023-07-13T13:48:21;100583.00;;;23.60
64960;BMP180;51487;52.266;10.542;2023-07-13T13:50:56;100602.00;;;23.40
64960;BMP180;51487;52.266;10.542;2023-07-13T13:53:22;100599.00;;;23.50
64960;BMP180;51487;52.266;10.542;2023-07-13T13:55:51;100596.00;;;23.60
64960;BMP180;51487;52.266;10.542;2023-07-13T13:58:18;100603.00;;;23.50
64960;BMP180;51487;52.266;10.542;2023-07-13T14:00:45;100597.00;;;23.70
64960;BMP180;51487;52.266;10.542;2023-07-13T14:03:17;100596.00;;;23.90
64960;BMP180;51487;52.266;10.542;2023-07-13T14:05:45;100602.00;;;23.80
64960;BMP180;51487;52.266;10.542;2023-07-13T14:08:19;100611.00;;;23.70
64960;BMP180;51487;52.266;10.542;2023-07-13T14:10:49;100614.00;;;23.50
64960;BMP180;51487;52.266;10.542;2023-07-13T14:13:32;100623.00;;;23.40
64960;BMP180;51487;52.266;10.542;2023-07-13T14:16:02;100627.00;;;23.30
64960;BMP180;51487;52.266;10.542;2023-07-13T14:18:30;100648.00;;;23.10
64960;BMP180;51487;52.266;10.542;2023-07-13T14:20:56;100651.00;;;22.90
64960;BMP180;51487;52.266;10.542;2023-07-13T14:23:21;100661.00;;;22.40
64960;BMP180;51487;52.266;10.542;2023-07-13T14:25:47;100673.00;;;21.30
64960;BMP180;51487;52.266;10.542;2023-07-13T14:28:22;100667.00;;;20.80
64960;BMP180;51487;52.266;10.542;2023-07-13T14:30:50;100679.00;;;20.20
64960;BMP180;51487;52.266;10.542;2023-07-13T14:33:16;100696.00;;;19.60
64960;BMP180;51487;52.266;10.542;2023-07-13T14:35:42;100725.00;;;19.20
64960;BMP180;51487;52.266;10.542;2023-07-13T14:38:14;100710.00;;;19.00